MMMZ/MZT METAR and TAF weather

Enter ICAO airport designator
Station Type Date Time Source
MMMZ METAR 2021/09/16 10:43 UTC NOAA

MMMZ 161043Z 03005KT 10SM SCT020 BKN090 OVC220 25/24 A2979 RMK 8/477


Station Type Date Time Source
MMMZ Decoded METAR 2021/09/16 10:43 UTC NOAA

Mazatlan / G. Buelna, Mexico (MMMZ) 23-10N 106-16W
Sep 16, 2021 - 06:43 AM EDT / 2021.09.16 1043 UTC
Wind: from the NNE (030 degrees) at 6 MPH (5 KT):0
Visibility: 10 mile(s):0
Sky conditions: overcast
Temperature: 77 F (25 C)
Dew Point: 75 F (24 C)
Relative Humidity: 94%
Pressure (altimeter): 29.79 in. Hg (1008 hPa)
ob: MMMZ 161043Z 03005KT 10SM SCT020 BKN090 OVC220 25/24 A2979 RMK 8/477
cycle: 10

Station Type Date Time Source
MMMZ TAF 2021/09/16 12:10 UTC NOAA

TAF MMMZ 161102Z 1612/1718 03005KT P6SM SCT020 BKN080 TX29/1619Z TN25/1612Z
FM161600 23010KT P6SM SCT020
FM170100 23010KT P6SM VC TS SCT015 BKN080
TEMPO 1706/1710 3SM TSRA BKN015CB
FM171600 21010KT P6SM SCT020 BKN080

Example: see airport list